createdAt,value
2018-06-16T00:00:37.249Z,15.20
2018-06-16T00:03:08.069Z,14.27
2018-06-16T00:05:38.919Z,14.83
2018-06-16T00:08:09.635Z,15.10
2018-06-16T00:10:40.278Z,13.80
2018-06-16T00:13:10.976Z,14.17
2018-06-16T00:15:41.791Z,14.00
2018-06-16T00:18:12.653Z,13.57
2018-06-16T00:20:43.496Z,13.73
2018-06-16T00:23:14.276Z,13.80
2018-06-16T00:25:45.151Z,13.40
2018-06-16T00:28:16.024Z,13.60
2018-06-16T00:30:46.889Z,13.73
2018-06-16T00:33:17.659Z,13.57
2018-06-16T00:35:48.396Z,13.20
2018-06-16T00:38:19.253Z,13.10
2018-06-16T00:40:50.299Z,13.40
2018-06-16T00:43:21.167Z,13.60
2018-06-16T00:45:52.060Z,14.03
2018-06-16T00:48:22.823Z,17.57
2018-06-16T00:50:53.499Z,14.30
2018-06-16T00:53:24.333Z,15.13
2018-06-16T00:55:55.179Z,15.20
2018-06-16T00:58:26.018Z,14.40
2018-06-16T01:00:56.822Z,15.23
2018-06-16T01:03:27.748Z,15.60
2018-06-16T01:05:58.626Z,15.53
2018-06-16T01:08:29.606Z,14.90
2018-06-16T01:11:00.613Z,15.43
2018-06-16T01:13:31.426Z,15.50
2018-06-16T01:16:02.244Z,15.70
2018-06-16T01:18:33.110Z,15.43
2018-06-16T01:21:03.821Z,14.37
2018-06-16T01:23:34.010Z,15.13
2018-06-16T01:26:04.615Z,15.47
2018-06-16T01:28:35.544Z,14.20
2018-06-16T01:31:06.254Z,15.33
2018-06-16T01:33:37.121Z,15.50
2018-06-16T01:36:07.897Z,15.90
2018-06-16T01:38:38.680Z,13.60
2018-06-16T01:41:09.376Z,14.67
2018-06-16T01:43:40.322Z,14.70
2018-06-16T01:46:11.154Z,15.97
2018-06-16T01:48:41.897Z,18.53
2018-06-16T01:51:12.778Z,15.33
2018-06-16T01:53:43.549Z,15.73
2018-06-16T01:56:14.582Z,16.00
2018-06-16T01:58:45.382Z,15.03
2018-06-16T02:01:16.304Z,15.93
2018-06-16T02:03:47.119Z,16.83
2018-06-16T02:06:17.988Z,14.80
2018-06-16T02:08:48.882Z,15.53
2018-06-16T02:11:19.638Z,18.80
2018-06-16T02:13:50.670Z,15.20
2018-06-16T02:16:21.436Z,15.37
2018-06-16T02:18:52.178Z,16.27
2018-06-16T02:21:23.017Z,14.77
2018-06-16T02:23:53.854Z,16.17
2018-06-16T02:26:24.627Z,16.47
2018-06-16T02:28:55.445Z,15.70
2018-06-16T02:31:26.300Z,16.43
2018-06-16T02:33:57.229Z,15.47
2018-06-16T02:36:27.988Z,16.20
2018-06-16T02:38:59.044Z,16.03
2018-06-16T02:41:29.900Z,16.83
2018-06-16T02:44:00.764Z,16.07
2018-06-16T02:46:31.533Z,15.93
2018-06-16T02:49:02.417Z,15.87
2018-06-16T02:51:33.190Z,18.53
2018-06-16T02:54:03.902Z,17.07
2018-06-16T02:56:34.705Z,15.77
2018-06-16T02:59:05.659Z,15.67
2018-06-16T03:01:36.462Z,15.90
2018-06-16T03:04:07.345Z,14.23
2018-06-16T03:06:38.214Z,14.20
2018-06-16T03:09:09.820Z,14.43
2018-06-16T03:11:40.564Z,15.20
2018-06-16T03:14:11.414Z,14.10
2018-06-16T03:16:42.264Z,13.63
2018-06-16T03:19:13.214Z,13.27
2018-06-16T03:21:44.022Z,14.93
2018-06-16T03:24:14.771Z,14.13
2018-06-16T03:26:45.510Z,14.60
2018-06-16T03:29:16.422Z,13.33
2018-06-16T03:31:47.239Z,14.83
2018-06-16T03:34:18.114Z,14.40
2018-06-16T03:36:48.873Z,13.33
2018-06-16T03:39:19.186Z,14.70
2018-06-16T03:41:49.762Z,15.67
2018-06-16T03:44:20.478Z,13.90
2018-06-16T03:46:51.183Z,14.30
2018-06-16T03:49:29.863Z,14.37
2018-06-16T03:52:00.666Z,13.37
2018-06-16T03:54:31.460Z,12.57
2018-06-16T03:57:02.258Z,14.60
2018-06-16T03:59:33.092Z,13.90
2018-06-16T04:02:03.847Z,14.37
2018-06-16T04:04:34.709Z,13.07
2018-06-16T04:07:05.532Z,13.57
2018-06-16T04:09:36.545Z,13.97
2018-06-16T04:12:07.394Z,16.73
2018-06-16T04:14:38.037Z,13.20
2018-06-16T04:17:16.899Z,13.67
2018-06-16T04:19:48.520Z,13.47
2018-06-16T04:22:19.467Z,11.80
2018-06-16T04:24:50.309Z,11.03
2018-06-16T04:27:21.166Z,13.53
2018-06-16T04:29:51.975Z,9.90
2018-06-16T04:32:22.834Z,12.20
2018-06-16T04:34:53.523Z,10.60
2018-06-16T04:37:24.223Z,10.50
2018-06-16T04:39:55.312Z,10.33
2018-06-16T04:42:26.133Z,10.33
2018-06-16T04:44:56.884Z,12.00
2018-06-16T04:47:27.595Z,10.77
2018-06-16T04:49:58.405Z,11.17
2018-06-16T04:52:29.134Z,10.63
2018-06-16T04:54:59.940Z,10.40
2018-06-16T04:57:30.660Z,10.67
2018-06-16T05:00:01.412Z,9.50
2018-06-16T05:02:32.317Z,10.13
2018-06-16T05:05:03.144Z,10.20
2018-06-16T05:07:34.220Z,10.93
2018-06-16T05:10:05.244Z,10.73
2018-06-16T05:12:36.113Z,11.10
2018-06-16T05:15:06.999Z,10.37
2018-06-16T05:17:37.780Z,10.60
2018-06-16T05:20:08.552Z,10.00
2018-06-16T05:22:39.366Z,10.43
2018-06-16T05:25:10.129Z,9.87
2018-06-16T05:27:40.995Z,10.47
2018-06-16T05:30:11.800Z,10.00
2018-06-16T05:32:43.012Z,10.33
2018-06-16T05:35:13.739Z,10.00
2018-06-16T05:37:44.631Z,9.17
2018-06-16T05:40:15.479Z,10.43
2018-06-16T05:42:46.305Z,10.30
2018-06-16T05:45:17.082Z,10.17
2018-06-16T05:47:47.888Z,10.53
2018-06-16T05:50:18.754Z,10.20
2018-06-16T05:52:49.387Z,11.83
2018-06-16T05:55:20.467Z,10.00
2018-06-16T05:57:51.236Z,10.23
2018-06-16T06:00:22.147Z,9.90
2018-06-16T06:02:52.982Z,10.37
2018-06-16T06:05:23.931Z,9.33
2018-06-16T06:07:54.675Z,9.67
2018-06-16T06:10:25.520Z,9.77
2018-06-16T06:12:56.345Z,9.30
2018-06-16T06:15:27.186Z,9.40
2018-06-16T06:17:58.080Z,10.17
2018-06-16T06:20:28.792Z,9.43
2018-06-16T06:22:59.776Z,9.90
2018-06-16T06:25:30.588Z,9.50
2018-06-16T06:28:01.367Z,8.90
2018-06-16T06:30:32.105Z,11.67
2018-06-16T06:33:02.860Z,10.03
2018-06-16T06:35:33.633Z,10.50
2018-06-16T06:38:04.517Z,9.23
2018-06-16T06:40:35.376Z,9.47
2018-06-16T06:43:06.089Z,9.93
2018-06-16T06:45:36.880Z,10.00
2018-06-16T06:48:07.753Z,8.97
2018-06-16T06:50:38.450Z,9.10
2018-06-16T06:53:09.143Z,8.73
2018-06-16T06:55:39.851Z,9.07
2018-06-16T06:58:10.967Z,8.77
2018-06-16T07:00:41.673Z,9.27
2018-06-16T07:03:12.364Z,9.33
2018-06-16T07:05:43.122Z,9.20
2018-06-16T07:08:13.923Z,8.83
2018-06-16T07:10:44.775Z,8.83
2018-06-16T07:13:15.424Z,9.00
2018-06-16T07:15:46.221Z,8.83
2018-06-16T07:18:16.900Z,7.93
2018-06-16T07:20:47.580Z,8.57
2018-06-16T07:23:18.369Z,7.53
2018-06-16T07:25:49.304Z,8.87
2018-06-16T07:28:20.063Z,9.83
2018-06-16T07:30:50.863Z,8.57
2018-06-16T07:33:21.584Z,8.70
2018-06-16T07:35:52.339Z,8.00
2018-06-16T07:38:23.134Z,8.20
2018-06-16T07:40:54.278Z,7.57
2018-06-16T07:43:25.217Z,7.43
2018-06-16T07:45:55.752Z,7.33
2018-06-16T07:48:26.662Z,7.27
2018-06-16T07:50:57.486Z,9.10
2018-06-16T07:53:28.754Z,7.60
2018-06-16T07:55:59.548Z,7.57
2018-06-16T07:58:30.437Z,7.83
2018-06-16T08:01:01.288Z,6.70
2018-06-16T08:03:32.432Z,6.00
2018-06-16T08:06:03.489Z,7.67
2018-06-16T08:08:34.240Z,6.30
2018-06-16T08:11:05.341Z,5.87
2018-06-16T08:13:36.425Z,6.40
2018-06-16T08:16:07.221Z,7.57
2018-06-16T08:18:38.036Z,6.47
2018-06-16T08:21:08.829Z,5.53
2018-06-16T08:23:40.077Z,5.47
2018-06-16T08:26:11.006Z,5.60
2018-06-16T08:28:41.939Z,6.10
2018-06-16T08:31:12.776Z,5.87
2018-06-16T08:33:43.610Z,7.37
2018-06-16T08:36:14.705Z,5.77
2018-06-16T08:38:45.599Z,5.90
2018-06-16T08:41:16.426Z,5.70
2018-06-16T08:43:47.190Z,5.93
2018-06-16T08:46:17.976Z,7.10
2018-06-16T08:48:48.744Z,5.93
2018-06-16T08:51:19.619Z,6.10
2018-06-16T08:53:50.768Z,6.17
2018-06-16T08:56:21.508Z,5.55
2018-06-16T08:58:52.252Z,6.10
2018-06-16T09:01:22.970Z,6.28
2018-06-16T09:03:53.873Z,5.67
2018-06-16T09:06:24.703Z,6.78
2018-06-16T09:08:55.421Z,7.28
2018-06-16T09:11:26.189Z,5.55
2018-06-16T09:13:56.995Z,5.83
2018-06-16T09:16:27.724Z,7.50
2018-06-16T09:18:58.546Z,5.97
2018-06-16T09:21:29.417Z,5.83
2018-06-16T09:24:00.215Z,5.75
2018-06-16T09:26:31.035Z,6.90
2018-06-16T09:29:01.931Z,5.45
2018-06-16T09:31:32.665Z,5.17
2018-06-16T09:34:03.610Z,5.60
2018-06-16T09:36:34.652Z,5.33
2018-06-16T09:39:08.873Z,5.55
2018-06-16T09:41:39.400Z,5.25
2018-06-16T09:44:10.362Z,6.10
2018-06-16T09:46:41.116Z,5.30
2018-06-16T09:49:11.906Z,5.50
2018-06-16T09:51:42.548Z,5.97
2018-06-16T09:54:13.238Z,5.17
2018-06-16T09:56:44.082Z,5.72
2018-06-16T09:59:14.906Z,4.70
2018-06-16T10:01:45.772Z,4.78
2018-06-16T10:04:16.580Z,5.47
2018-06-16T10:06:47.396Z,4.90
2018-06-16T10:09:18.074Z,5.30
2018-06-16T10:11:48.770Z,5.03
2018-06-16T10:14:19.877Z,5.00
2018-06-16T10:16:50.667Z,4.92
2018-06-16T10:19:21.681Z,5.22
2018-06-16T10:21:52.601Z,5.22
2018-06-16T10:24:23.456Z,5.17
2018-06-16T10:26:54.198Z,4.95
2018-06-16T10:29:25.008Z,4.83
2018-06-16T10:31:55.786Z,5.12
2018-06-16T10:34:26.630Z,5.40
2018-06-16T10:36:57.359Z,5.10
2018-06-16T10:39:28.109Z,4.90
2018-06-16T10:41:58.936Z,5.10
2018-06-16T10:44:29.683Z,4.58
2018-06-16T10:47:00.411Z,4.58
2018-06-16T10:49:31.304Z,4.90
2018-06-16T10:52:02.067Z,4.75
2018-06-16T10:54:33.218Z,5.03
2018-06-16T10:57:03.978Z,5.35
2018-06-16T10:59:34.648Z,5.35
2018-06-16T11:02:04.803Z,4.45
2018-06-16T11:04:35.331Z,4.67
2018-06-16T11:07:05.997Z,4.70
2018-06-16T11:09:36.770Z,4.80
2018-06-16T11:12:07.497Z,5.58
2018-06-16T11:14:38.980Z,5.33
2018-06-16T11:17:09.882Z,4.12
2018-06-16T11:19:40.524Z,4.60
2018-06-16T11:22:11.406Z,4.33
2018-06-16T11:24:42.216Z,5.65
2018-06-16T11:27:13.112Z,4.22
2018-06-16T11:29:43.747Z,4.60
2018-06-16T11:32:14.594Z,4.10
2018-06-16T11:34:45.346Z,3.90
2018-06-16T11:37:15.998Z,4.45
2018-06-16T11:39:46.848Z,5.37
2018-06-16T11:42:17.517Z,4.33
2018-06-16T11:44:48.286Z,4.40
2018-06-16T11:47:19.097Z,4.60
2018-06-16T11:49:49.820Z,4.35
2018-06-16T11:52:20.598Z,4.20
2018-06-16T11:54:51.512Z,4.87
2018-06-16T11:57:22.310Z,4.97
2018-06-16T11:59:52.983Z,4.17
2018-06-16T12:02:23.712Z,4.37
2018-06-16T12:04:54.372Z,4.50
2018-06-16T12:07:25.002Z,4.53
2018-06-16T12:09:55.750Z,4.53
2018-06-16T12:12:26.806Z,6.42
2018-06-16T12:14:57.531Z,4.40
2018-06-16T12:17:28.479Z,3.95
2018-06-16T12:19:59.175Z,4.08
2018-06-16T12:22:30.224Z,4.30
2018-06-16T12:25:01.347Z,5.08
2018-06-16T12:27:32.329Z,5.03
2018-06-16T12:30:03.186Z,4.30
2018-06-16T12:32:33.747Z,4.25
2018-06-16T12:35:04.696Z,4.60
2018-06-16T12:37:35.463Z,4.47
2018-06-16T12:40:06.248Z,4.58
2018-06-16T12:42:37.135Z,5.85
2018-06-16T12:45:08.079Z,8.65
2018-06-16T12:47:38.710Z,4.53
2018-06-16T12:50:10.354Z,4.55
2018-06-16T12:52:41.515Z,4.72
2018-06-16T12:55:12.302Z,4.70
2018-06-16T12:57:43.399Z,4.72
2018-06-16T13:00:14.308Z,5.08
2018-06-16T13:02:45.068Z,5.92
2018-06-16T13:05:16.049Z,5.35
2018-06-16T13:07:46.893Z,5.47
2018-06-16T13:10:17.790Z,4.80
2018-06-16T13:12:48.624Z,4.95
2018-06-16T13:15:19.615Z,5.00
2018-06-16T13:17:50.376Z,5.58
2018-06-16T13:20:21.732Z,5.45
2018-06-16T13:22:52.515Z,4.85
2018-06-16T13:25:23.331Z,4.70
2018-06-16T13:27:54.118Z,5.20
2018-06-16T13:30:25.193Z,4.55
2018-06-16T13:32:56.028Z,4.80
2018-06-16T13:35:27.026Z,4.62
2018-06-16T13:37:57.921Z,4.62
2018-06-16T13:40:28.758Z,5.08
2018-06-16T13:42:59.724Z,4.83
2018-06-16T13:45:30.566Z,5.28
2018-06-16T13:48:01.343Z,4.80
2018-06-16T13:50:32.165Z,4.85
2018-06-16T13:53:03.177Z,4.25
2018-06-16T13:55:34.123Z,4.90
2018-06-16T13:58:04.841Z,4.42
2018-06-16T14:00:35.820Z,4.45
2018-06-16T14:03:06.755Z,4.70
2018-06-16T14:05:37.499Z,4.35
2018-06-16T14:08:08.440Z,6.33
2018-06-16T14:10:39.476Z,4.75
2018-06-16T14:13:10.511Z,4.70
2018-06-16T14:15:41.311Z,4.37
2018-06-16T14:18:12.158Z,4.40
2018-06-16T14:20:42.797Z,4.65
2018-06-16T14:23:13.700Z,6.90
2018-06-16T14:25:44.835Z,4.78
2018-06-16T14:28:15.618Z,5.12
2018-06-16T14:30:46.490Z,4.40
2018-06-16T14:33:17.211Z,6.25
2018-06-16T14:35:48.244Z,5.28
2018-06-16T14:38:19.199Z,4.33
2018-06-16T14:40:50.014Z,4.58
2018-06-16T14:43:20.980Z,5.55
2018-06-16T14:45:52.195Z,4.87
2018-06-16T14:48:22.909Z,5.05
2018-06-16T14:50:53.797Z,5.33
2018-06-16T14:53:24.587Z,4.95
2018-06-16T14:55:55.550Z,5.25
2018-06-16T14:58:27.743Z,5.22
2018-06-16T15:00:58.609Z,4.72
2018-06-16T15:03:29.378Z,5.22
2018-06-16T15:06:00.109Z,5.20
2018-06-16T15:08:30.858Z,4.87
2018-06-16T15:11:01.719Z,4.40
2018-06-16T15:13:32.796Z,4.92
2018-06-16T15:16:03.665Z,4.87
2018-06-16T15:18:34.891Z,5.03
2018-06-16T15:21:05.887Z,5.12
2018-06-16T15:23:36.638Z,5.47
2018-06-16T15:26:07.904Z,5.00
2018-06-16T15:28:38.688Z,5.12
2018-06-16T15:31:09.907Z,4.85
2018-06-16T15:33:40.672Z,5.40
2018-06-16T15:36:11.442Z,5.50
2018-06-16T15:38:42.269Z,5.22
2018-06-16T15:41:13.255Z,5.30
2018-06-16T15:43:44.219Z,8.73
2018-06-16T15:46:15.020Z,5.50
2018-06-16T15:48:46.027Z,6.67
2018-06-16T15:51:16.838Z,5.62
2018-06-16T15:53:47.129Z,4.85
2018-06-16T15:56:17.859Z,6.28
2018-06-16T15:58:48.609Z,4.70
2018-06-16T16:01:19.453Z,5.15
2018-06-16T16:03:50.937Z,5.42
2018-06-16T16:06:21.713Z,5.45
2018-06-16T16:08:52.554Z,5.15
2018-06-16T16:11:23.369Z,6.35
2018-06-16T16:13:54.182Z,5.72
2018-06-16T16:16:24.973Z,5.12
2018-06-16T16:18:55.820Z,5.37
2018-06-16T16:24:41.482Z,4.83
2018-06-16T16:27:12.471Z,5.10
2018-06-16T16:29:43.463Z,5.00
2018-06-16T16:32:14.458Z,5.20
2018-06-16T16:34:45.279Z,5.58
2018-06-16T16:37:16.269Z,6.03
2018-06-16T16:39:47.167Z,5.55
2018-06-16T16:42:18.039Z,5.70
2018-06-16T16:44:49.267Z,5.60
2018-06-16T16:47:20.063Z,7.67
2018-06-16T16:49:50.802Z,5.70
2018-06-16T16:52:21.654Z,8.05
2018-06-16T16:54:52.586Z,5.78
2018-06-16T16:57:23.411Z,5.42
2018-06-16T16:59:54.258Z,5.30
2018-06-16T17:02:25.084Z,5.10
2018-06-16T17:04:56.094Z,6.47
2018-06-16T17:07:26.822Z,7.00
2018-06-16T17:09:57.865Z,5.60
2018-06-16T17:12:29.160Z,5.95
2018-06-16T17:14:59.878Z,5.45
2018-06-16T17:17:30.580Z,6.80
2018-06-16T17:20:01.329Z,6.17
2018-06-16T17:22:31.976Z,6.62
2018-06-16T17:25:02.920Z,6.43
2018-06-16T17:27:33.720Z,5.90
2018-06-16T17:30:04.664Z,6.17
2018-06-16T17:32:35.492Z,6.37
2018-06-16T17:35:06.393Z,5.73
2018-06-16T17:37:37.113Z,8.57
2018-06-16T17:40:08.139Z,6.90
2018-06-16T17:42:38.930Z,7.13
2018-06-16T17:45:09.724Z,6.70
2018-06-16T17:47:40.856Z,7.53
2018-06-16T17:50:11.650Z,6.57
2018-06-16T17:52:42.394Z,6.50
2018-06-16T17:55:13.156Z,6.27
2018-06-16T17:57:44.096Z,6.33
2018-06-16T18:00:14.838Z,6.13
2018-06-16T18:02:45.958Z,7.37
2018-06-16T18:05:17.032Z,6.83
2018-06-16T18:07:47.935Z,7.13
2018-06-16T18:10:19.097Z,7.80
2018-06-16T18:12:50.089Z,6.20
2018-06-16T18:15:20.961Z,6.93
2018-06-16T18:17:51.995Z,6.90
2018-06-16T18:20:22.735Z,7.33
2018-06-16T18:22:53.484Z,7.97
2018-06-16T18:25:24.615Z,6.17
2018-06-16T18:27:55.288Z,6.73
2018-06-16T18:30:26.415Z,6.53
2018-06-16T18:32:57.202Z,6.67
2018-06-16T18:35:28.136Z,7.03
2018-06-16T18:37:58.979Z,6.30
2018-06-16T18:40:29.733Z,6.70
2018-06-16T18:43:00.462Z,7.33
2018-06-16T18:45:31.391Z,8.20
2018-06-16T18:48:02.216Z,7.60
2018-06-16T18:50:33.065Z,6.40
2018-06-16T18:53:03.889Z,7.23
2018-06-16T18:55:34.784Z,7.53
2018-06-16T18:58:05.606Z,7.03
2018-06-16T19:00:36.533Z,7.07
2018-06-16T19:03:07.442Z,8.90
2018-06-16T19:05:38.586Z,7.30
2018-06-16T19:08:09.935Z,7.20
2018-06-16T19:10:40.791Z,7.23
2018-06-16T19:13:11.662Z,6.83
2018-06-16T19:15:42.646Z,6.93
2018-06-16T19:18:13.407Z,7.40
2018-06-16T19:20:44.138Z,7.73
2018-06-16T19:23:15.034Z,8.00
2018-06-16T19:25:45.805Z,7.40
2018-06-16T19:28:16.619Z,8.40
2018-06-16T19:30:47.482Z,8.37
2018-06-16T19:33:18.374Z,8.63
2018-06-16T19:35:49.964Z,9.17
2018-06-16T19:38:20.696Z,7.67
2018-06-16T19:40:51.466Z,8.57
2018-06-16T19:43:22.240Z,9.20
2018-06-16T19:45:53.146Z,8.40
2018-06-16T19:48:24.301Z,9.10
2018-06-16T19:50:55.389Z,9.60
2018-06-16T19:53:26.179Z,11.70
2018-06-16T19:55:56.983Z,8.77
2018-06-16T19:58:27.799Z,8.87
2018-06-16T20:00:58.582Z,8.70
2018-06-16T20:03:29.506Z,8.27
2018-06-16T20:06:00.330Z,11.60
2018-06-16T20:08:31.291Z,9.47
2018-06-16T20:11:02.063Z,9.80
2018-06-16T20:13:33.020Z,9.50
2018-06-16T20:16:03.917Z,8.77
2018-06-16T20:18:34.791Z,9.53
2018-06-16T20:21:05.674Z,9.90
2018-06-16T20:23:36.406Z,10.80
2018-06-16T20:26:07.175Z,10.27
2018-06-16T20:28:37.884Z,10.70
2018-06-16T20:31:08.774Z,11.00
2018-06-16T20:33:39.405Z,9.90
2018-06-16T20:36:10.079Z,10.70
2018-06-16T20:38:40.796Z,10.10
2018-06-16T20:41:11.492Z,11.47
2018-06-16T20:43:42.201Z,11.27
2018-06-16T20:46:12.969Z,11.93
2018-06-16T20:48:43.851Z,12.20
2018-06-16T20:51:14.671Z,12.20
2018-06-16T20:53:45.558Z,11.93
2018-06-16T20:56:16.717Z,13.00
2018-06-16T20:58:47.460Z,14.10
2018-06-16T21:01:18.296Z,12.30
2018-06-16T21:03:49.275Z,13.50
2018-06-16T21:06:19.917Z,14.23
2018-06-16T21:08:50.600Z,12.23
2018-06-16T21:11:21.458Z,14.67
2018-06-16T21:13:52.322Z,12.90
2018-06-16T21:16:23.130Z,13.03
2018-06-16T21:18:53.885Z,13.90
2018-06-16T21:21:24.870Z,12.70
2018-06-16T21:23:55.158Z,18.23
2018-06-16T21:26:25.685Z,21.57
2018-06-16T21:28:56.470Z,18.43
2018-06-16T21:31:27.313Z,14.23
2018-06-16T21:33:58.192Z,15.37
2018-06-16T21:36:29.099Z,13.80
2018-06-16T21:38:59.964Z,13.37
2018-06-16T21:41:31.408Z,13.47
2018-06-16T21:44:02.167Z,14.03
2018-06-16T21:46:32.957Z,13.23
2018-06-16T21:49:03.812Z,14.47
2018-06-16T21:51:34.488Z,14.57
2018-06-16T21:54:05.221Z,16.23
2018-06-16T21:56:36.106Z,17.73
2018-06-16T21:59:07.022Z,17.10
2018-06-16T22:01:38.405Z,17.80
2018-06-16T22:04:09.220Z,15.87
2018-06-16T22:06:40.086Z,15.80
2018-06-16T22:09:11.509Z,14.93
2018-06-16T22:11:42.321Z,14.13
2018-06-16T22:14:13.186Z,14.27
2018-06-16T22:16:43.981Z,13.70
2018-06-16T22:19:14.886Z,14.77
2018-06-16T22:21:45.722Z,12.80
2018-06-16T22:24:16.449Z,15.03
2018-06-16T22:26:47.117Z,14.67
2018-06-16T22:29:18.174Z,14.90
2018-06-16T22:31:49.041Z,15.90
2018-06-16T22:34:19.377Z,14.70
2018-06-16T22:36:50.157Z,16.40
2018-06-16T22:39:21.177Z,16.13
2018-06-16T22:41:52.093Z,14.73
2018-06-16T22:44:22.829Z,15.17
2018-06-16T22:46:53.545Z,15.00
2018-06-16T22:49:24.502Z,15.47
2018-06-16T22:51:55.298Z,14.80
2018-06-16T22:54:26.106Z,14.40
2018-06-16T22:56:56.859Z,14.67
2018-06-16T22:59:27.579Z,15.30
2018-06-16T23:01:58.368Z,15.23
2018-06-16T23:04:29.181Z,15.47
2018-06-16T23:06:59.971Z,16.87
2018-06-16T23:09:30.729Z,16.07
2018-06-16T23:12:01.462Z,15.40
2018-06-16T23:14:32.437Z,15.10
2018-06-16T23:17:03.264Z,16.03
2018-06-16T23:19:34.276Z,16.60
2018-06-16T23:22:05.167Z,16.60
2018-06-16T23:24:36.234Z,16.30
2018-06-16T23:27:07.508Z,16.77
2018-06-16T23:29:38.337Z,17.27
2018-06-16T23:32:09.131Z,16.33
2018-06-16T23:34:39.952Z,17.40
2018-06-16T23:37:10.735Z,17.27
2018-06-16T23:39:41.473Z,19.30
2018-06-16T23:42:12.397Z,20.63
2018-06-16T23:44:43.264Z,20.27
2018-06-16T23:47:14.270Z,19.83
2018-06-16T23:49:45.301Z,21.70
2018-06-16T23:52:16.435Z,19.57
2018-06-16T23:54:47.164Z,19.33
2018-06-16T23:57:18.423Z,19.97
2018-06-16T23:59:49.532Z,21.33
